Time;durP1;ratioP1;P1;durP2;ratioP2;P2;SDS_P1;SDS_P2;PMS_P1;PMS_P2;Temp;Humidity;BMP_temperature;BMP_pressure;BME280_temperature;BME280_humidity;BME280_pressure;Samples;Min_cycle;Max_cycle;Signal;HPM_P1;HPM_P2
2021/12/01 00:00:13;;;;;;;29.80;16.35;;;9.00;99.90;;;;;;5065223;28;20071;-69
2021/12/01 00:02:39;;;;;;;31.08;17.08;;;9.00;99.90;;;;;;5070580;28;20117;-68
2021/12/01 00:05:07;;;;;;;36.25;16.80;;;9.10;99.90;;;;;;5092343;28;20036;-69
2021/12/01 00:07:35;;;;;;;29.10;16.45;;;9.10;99.90;;;;;;5093338;28;20066;-69
2021/12/01 00:10:04;;;;;;;29.98;16.33;;;9.10;99.90;;;;;;5093177;28;20040;-69
2021/12/01 00:12:30;;;;;;;35.40;16.98;;;9.10;99.90;;;;;;5091432;28;20094;-69
2021/12/01 00:14:55;;;;;;;30.35;17.67;;;9.10;99.90;;;;;;5092360;28;20071;-69
2021/12/01 00:17:21;;;;;;;30.77;15.82;;;9.10;99.90;;;;;;5091732;28;20507;-69
2021/12/01 00:19:46;;;;;;;30.15;16.50;;;9.10;99.90;;;;;;5092750;28;20040;-70
2021/12/01 00:22:12;;;;;;;29.55;16.50;;;9.10;99.90;;;;;;5091141;28;20044;-70
2021/12/01 00:24:37;;;;;;;30.55;16.85;;;9.10;99.90;;;;;;5092877;28;20040;-70
2021/12/01 00:27:03;;;;;;;29.10;17.70;;;9.10;99.90;;;;;;5092552;28;20094;-70
2021/12/01 00:29:29;;;;;;;34.72;18.05;;;9.10;99.90;;;;;;5093022;28;20109;-70
2021/12/01 00:31:55;;;;;;;33.47;18.55;;;9.10;99.90;;;;;;5092483;28;20048;-70
2021/12/01 00:34:20;;;;;;;37.08;19.55;;;9.10;99.90;;;;;;5092664;28;20115;-71
2021/12/01 00:36:46;;;;;;;35.63;19.88;;;9.20;99.90;;;;;;5092034;28;20089;-71
2021/12/01 00:39:11;;;;;;;38.88;20.50;;;9.20;99.90;;;;;;5092383;28;20040;-71
2021/12/01 00:41:37;;;;;;;34.05;19.30;;;9.20;99.90;;;;;;5092274;28;20036;-71
2021/12/01 00:44:03;;;;;;;37.30;20.77;;;9.20;99.90;;;;;;5092480;28;20046;-71
2021/12/01 00:46:42;;;;;;;36.13;20.50;;;9.20;99.90;;;;;;5092441;28;20066;-71
2021/12/01 00:49:08;;;;;;;36.88;21.35;;;9.20;99.90;;;;;;5092429;28;20050;-71
2021/12/01 00:51:34;;;;;;;39.05;22.65;;;9.20;99.90;;;;;;5092222;28;20356;-71
2021/12/01 00:54:00;;;;;;;41.85;22.90;;;9.20;99.90;;;;;;5092121;28;20036;-72
2021/12/01 00:56:26;;;;;;;40.17;22.95;;;9.20;99.90;;;;;;5090889;28;20050;-71
2021/12/01 00:58:51;;;;;;;39.85;21.95;;;9.20;99.90;;;;;;5092123;28;20400;-71
2021/12/01 01:01:17;;;;;;;40.08;22.77;;;9.30;99.90;;;;;;5091119;28;20050;-72
2021/12/01 01:03:43;;;;;;;35.13;21.17;;;9.30;99.90;;;;;;5091931;28;20032;-72
2021/12/01 01:06:09;;;;;;;34.83;21.55;;;9.30;99.90;;;;;;5092087;28;20043;-72
2021/12/01 01:08:35;;;;;;;42.50;23.27;;;9.30;99.90;;;;;;5092037;28;20122;-72
2021/12/01 01:16:25;;;;;;;37.70;21.60;;;9.30;99.90;;;;;;5091580;28;20043;-72
2021/12/01 01:18:53;;;;;;;37.75;21.70;;;9.30;99.90;;;;;;5091668;28;20040;-71
2021/12/01 01:21:19;;;;;;;36.53;20.08;;;9.30;99.90;;;;;;5091977;28;20032;-71
2021/12/01 01:23:45;;;;;;;37.38;20.13;;;9.30;99.90;;;;;;5091594;28;20046;-70
2021/12/01 01:26:14;;;;;;;38.40;20.40;;;9.30;99.90;;;;;;5091682;28;20496;-71
2021/12/01 01:28:40;;;;;;;34.05;19.17;;;9.30;99.90;;;;;;5091722;28;20470;-70
2021/12/01 01:31:06;;;;;;;32.70;18.13;;;9.30;99.90;;;;;;5091646;28;20067;-71
2021/12/01 01:33:32;;;;;;;32.78;16.95;;;9.30;99.90;;;;;;5091185;28;20467;-70
2021/12/01 01:35:58;;;;;;;31.88;16.88;;;9.30;99.90;;;;;;5091753;28;20561;-70
2021/12/01 01:38:24;;;;;;;32.15;17.52;;;9.30;99.90;;;;;;5091658;28;20076;-70
2021/12/01 01:40:49;;;;;;;24.50;14.98;;;9.30;99.90;;;;;;5091697;28;20035;-70
2021/12/01 01:43:15;;;;;;;27.70;16.20;;;9.40;99.90;;;;;;5091209;28;20032;-70
2021/12/01 01:45:41;;;;;;;25.13;13.75;;;9.40;99.90;;;;;;5091368;28;20098;-70
2021/12/01 01:48:11;;;;;;;26.60;14.27;;;9.40;99.90;;;;;;5090508;28;20073;-70
2021/12/01 01:50:40;;;;;;;29.45;14.82;;;9.40;99.90;;;;;;5090311;28;20044;-71
2021/12/01 01:53:21;;;;;;;24.92;13.93;;;9.40;99.90;;;;;;5091153;28;20058;-71
2021/12/01 01:55:49;;;;;;;21.80;13.98;;;9.40;99.90;;;;;;5091401;28;20488;-71
2021/12/01 01:58:15;;;;;;;21.33;12.45;;;9.40;99.90;;;;;;5091236;28;20069;-71
2021/12/01 02:00:51;;;;;;;19.83;12.10;;;9.40;99.90;;;;;;5089744;28;20039;-71
2021/12/01 02:03:19;;;;;;;21.88;13.35;;;9.40;99.90;;;;;;5090855;28;20388;-71
2021/12/01 02:05:44;;;;;;;18.38;11.85;;;9.40;99.90;;;;;;5091159;28;20392;-71
2021/12/01 02:08:20;;;;;;;23.10;11.95;;;9.40;99.90;;;;;;5091193;28;20043;-71
2021/12/01 02:10:50;;;;;;;20.88;12.13;;;9.40;99.90;;;;;;5090003;28;20048;-70
2021/12/01 02:13:18;;;;;;;22.92;11.40;;;9.50;99.90;;;;;;5090745;28;20484;-70
2021/12/01 02:15:44;;;;;;;20.83;12.35;;;9.40;99.90;;;;;;5090468;28;20032;-70
2021/12/01 02:18:10;;;;;;;20.55;11.40;;;9.50;99.90;;;;;;5091090;28;20048;-69
2021/12/01 02:20:36;;;;;;;18.13;11.27;;;9.50;99.90;;;;;;5091135;28;20114;-69
2021/12/01 02:23:02;;;;;;;20.40;10.63;;;9.50;99.90;;;;;;5090602;28;20115;-69
2021/12/01 02:25:28;;;;;;;18.08;10.10;;;9.50;99.90;;;;;;5090009;28;20032;-69
2021/12/01 02:27:54;;;;;;;14.98;9.73;;;9.50;99.90;;;;;;5091024;28;20039;-69
2021/12/01 02:30:19;;;;;;;19.33;10.70;;;9.50;99.90;;;;;;5091051;28;20140;-70
2021/12/01 02:32:45;;;;;;;16.15;9.05;;;9.50;99.90;;;;;;5090551;28;20523;-70
2021/12/01 02:35:11;;;;;;;17.58;9.32;;;9.50;99.90;;;;;;5090797;28;20036;-70
2021/12/01 02:37:37;;;;;;;14.55;9.18;;;9.50;99.90;;;;;;5090747;28;20062;-70
2021/12/01 02:40:05;;;;;;;15.85;10.10;;;9.60;99.90;;;;;;5089574;28;20040;-70
2021/12/01 02:42:31;;;;;;;17.38;9.98;;;9.60;99.90;;;;;;5090691;28;20044;-69
2021/12/01 02:44:56;;;;;;;17.20;9.63;;;9.60;99.90;;;;;;5090743;28;20059;-70
2021/12/01 02:47:26;;;;;;;16.38;9.57;;;9.60;99.90;;;;;;5089781;28;20152;-70
2021/12/01 02:49:55;;;;;;;13.20;8.75;;;9.60;99.90;;;;;;5090768;28;20048;-70
2021/12/01 02:52:25;;;;;;;14.52;8.52;;;9.60;99.90;;;;;;5089275;28;20047;-70
2021/12/01 02:54:51;;;;;;;12.18;7.72;;;9.60;99.90;;;;;;5090803;28;20115;-69
2021/12/01 02:57:16;;;;;;;12.68;7.70;;;9.60;99.90;;;;;;5090704;28;20039;-69
2021/12/01 02:59:43;;;;;;;10.90;7.15;;;9.60;99.90;;;;;;5091400;28;20406;-69
2021/12/01 03:02:10;;;;;;;12.18;7.20;;;9.60;99.90;;;;;;5093985;28;20556;-69
2021/12/01 03:04:36;;;;;;;8.85;6.50;;;9.60;99.90;;;;;;5094166;28;20511;-69
2021/12/01 03:07:03;;;;;;;9.70;5.80;;;9.60;99.90;;;;;;5094570;28;20035;-69
2021/12/01 03:09:29;;;;;;;10.70;5.80;;;9.60;99.90;;;;;;5094348;28;20399;-69
2021/12/01 03:11:55;;;;;;;6.45;5.07;;;9.70;99.90;;;;;;5093935;28;20511;-70
2021/12/01 03:14:21;;;;;;;7.70;4.25;;;9.70;99.90;;;;;;5094017;28;20043;-69
2021/12/01 03:16:49;;;;;;;6.43;4.60;;;9.70;99.90;;;;;;5092228;28;20048;-70
2021/12/01 03:19:15;;;;;;;5.65;3.90;;;9.70;99.90;;;;;;5094175;28;20119;-70
2021/12/01 03:21:43;;;;;;;7.90;4.25;;;9.70;99.90;;;;;;5094066;28;20565;-70
2021/12/01 03:24:11;;;;;;;6.55;4.70;;;9.70;99.90;;;;;;5094058;28;20174;-70
2021/12/01 03:26:37;;;;;;;7.47;3.40;;;9.70;99.90;;;;;;5093966;28;20043;-71
2021/12/01 03:29:05;;;;;;;5.85;3.72;;;9.70;99.90;;;;;;5093819;28;20051;-71
2021/12/01 03:31:30;;;;;;;5.28;4.00;;;9.80;99.90;;;;;;5093742;28;20039;-71
2021/12/01 03:33:56;;;;;;;6.75;4.43;;;9.80;99.90;;;;;;5093730;28;20105;-70
2021/12/01 03:36:22;;;;;;;8.55;4.25;;;9.70;99.90;;;;;;5093753;28;20349;-70
2021/12/01 03:38:48;;;;;;;5.75;4.20;;;9.70;99.90;;;;;;5092306;28;20051;-70
2021/12/01 03:41:14;;;;;;;6.90;4.25;;;9.70;99.90;;;;;;5093787;28;20044;-70
2021/12/01 03:43:40;;;;;;;5.57;4.13;;;9.70;99.90;;;;;;5093245;28;20036;-71
2021/12/01 03:46:06;;;;;;;5.18;3.85;;;9.70;99.90;;;;;;5093531;28;20078;-70
2021/12/01 03:48:31;;;;;;;6.63;4.35;;;9.70;99.90;;;;;;5093582;28;20500;-71
2021/12/01 03:50:57;;;;;;;7.03;4.53;;;9.80;99.90;;;;;;5093588;28;20035;-71
2021/12/01 03:53:24;;;;;;;7.75;5.00;;;9.80;99.90;;;;;;5093076;28;20512;-72
2021/12/01 03:55:51;;;;;;;7.70;4.65;;;9.70;99.90;;;;;;5091996;28;20055;-71
2021/12/01 03:58:17;;;;;;;6.43;5.05;;;9.70;99.90;;;;;;5093227;28;20039;-72
2021/12/01 04:00:43;;;;;;;7.53;4.75;;;9.80;99.90;;;;;;5093186;28;20406;-71
2021/12/01 04:03:08;;;;;;;7.75;5.25;;;9.70;99.90;;;;;;5093072;28;20081;-71
2021/12/01 04:05:34;;;;;;;7.13;5.20;;;9.70;99.90;;;;;;5092934;28;20040;-71
2021/12/01 04:08:01;;;;;;;6.55;4.88;;;9.70;99.90;;;;;;5093232;28;20036;-71
2021/12/01 04:10:28;;;;;;;6.47;5.03;;;9.70;99.90;;;;;;5093084;28;20048;-71
2021/12/01 04:12:53;;;;;;;5.72;4.93;;;9.70;99.90;;;;;;5091715;28;20040;-71
2021/12/01 04:15:19;;;;;;;6.47;4.57;;;9.70;99.90;;;;;;5092084;28;20058;-71
2021/12/01 04:17:45;;;;;;;7.40;4.90;;;9.70;99.90;;;;;;5092945;28;20064;-71
2021/12/01 04:20:13;;;;;;;6.38;4.80;;;9.70;99.90;;;;;;5092981;28;20039;-70
2021/12/01 04:22:40;;;;;;;5.97;4.25;;;9.70;99.90;;;;;;5092726;28;20046;-68
2021/12/01 04:25:06;;;;;;;5.05;4.03;;;9.70;99.90;;;;;;5092737;28;20089;-68
2021/12/01 04:27:32;;;;;;;5.15;3.95;;;9.70;99.90;;;;;;5092829;28;20545;-68
2021/12/01 04:29:58;;;;;;;5.07;3.92;;;9.60;99.90;;;;;;5092962;28;20040;-68
2021/12/01 04:32:24;;;;;;;4.45;4.05;;;9.60;99.90;;;;;;5092602;28;20089;-68
2021/12/01 04:34:49;;;;;;;4.40;3.40;;;9.60;99.90;;;;;;5092547;28;20538;-68
2021/12/01 04:37:16;;;;;;;4.07;3.67;;;9.60;99.90;;;;;;5092662;28;20076;-68
2021/12/01 04:39:42;;;;;;;3.58;3.05;;;9.60;99.90;;;;;;5092422;28;20075;-68
2021/12/01 04:42:08;;;;;;;3.67;3.38;;;9.60;99.90;;;;;;5092333;28;20038;-69
2021/12/01 04:44:35;;;;;;;3.42;3.00;;;9.60;99.90;;;;;;5091017;28;20176;-68
2021/12/01 04:47:03;;;;;;;3.35;2.97;;;9.50;99.90;;;;;;5092416;28;20070;-69
2021/12/01 04:49:37;;;;;;;3.53;3.20;;;9.50;99.90;;;;;;5091117;28;20123;-69
2021/12/01 04:52:03;;;;;;;3.17;2.85;;;9.50;99.90;;;;;;5092110;28;20044;-69
2021/12/01 04:54:29;;;;;;;3.03;2.72;;;9.50;99.90;;;;;;5091102;28;20082;-69
2021/12/01 04:56:55;;;;;;;4.55;3.30;;;9.50;99.90;;;;;;5092256;28;20047;-69
2021/12/01 04:59:22;;;;;;;3.80;2.75;;;9.50;99.90;;;;;;5092066;28;20044;-69
2021/12/01 05:01:51;;;;;;;3.05;2.72;;;9.50;99.90;;;;;;5091702;28;20032;-68
2021/12/01 05:04:16;;;;;;;3.08;2.40;;;9.40;99.90;;;;;;5092019;28;20519;-68
2021/12/01 05:06:42;;;;;;;3.42;3.13;;;9.40;99.90;;;;;;5090759;28;20036;-69
2021/12/01 05:09:09;;;;;;;3.28;2.95;;;9.40;99.90;;;;;;5092386;28;20032;-68
2021/12/01 05:11:35;;;;;;;3.00;2.70;;;9.40;99.90;;;;;;5090915;28;20051;-68
2021/12/01 05:14:01;;;;;;;2.80;2.60;;;9.40;99.90;;;;;;5091710;28;20395;-68
2021/12/01 05:16:26;;;;;;;3.03;2.72;;;9.30;99.90;;;;;;5091642;28;20127;-68
2021/12/01 05:18:52;;;;;;;2.78;2.58;;;9.30;99.90;;;;;;5091686;28;20115;-68
2021/12/01 05:21:18;;;;;;;2.78;2.58;;;9.30;99.90;;;;;;5091865;28;20040;-68
2021/12/01 05:23:44;;;;;;;3.47;2.97;;;9.30;99.90;;;;;;5090069;28;20040;-68
2021/12/01 05:26:11;;;;;;;3.25;2.97;;;9.30;99.90;;;;;;5091623;28;20040;-69
2021/12/01 05:28:40;;;;;;;2.95;2.60;;;9.30;99.90;;;;;;5091664;28;20048;-68
2021/12/01 05:31:06;;;;;;;3.53;3.03;;;9.30;99.90;;;;;;5091688;28;20046;-69
2021/12/01 05:33:32;;;;;;;3.30;3.00;;;9.30;99.90;;;;;;5091083;28;20040;-69
2021/12/01 05:35:58;;;;;;;3.40;3.10;;;9.30;99.90;;;;;;5091776;28;20512;-69
2021/12/01 05:38:25;;;;;;;3.88;2.58;;;9.20;99.90;;;;;;5091425;28;20541;-69
2021/12/01 05:40:51;;;;;;;3.97;2.65;;;9.20;99.90;;;;;;5091572;28;20155;-69
2021/12/01 05:43:17;;;;;;;2.85;2.63;;;9.20;99.90;;;;;;5091276;28;20090;-69
2021/12/01 05:45:44;;;;;;;3.08;2.40;;;9.20;99.90;;;;;;5091398;28;20399;-69
2021/12/01 05:48:09;;;;;;;3.25;2.95;;;9.20;99.90;;;;;;5091488;28;20072;-69
2021/12/01 05:50:35;;;;;;;2.88;2.58;;;9.20;99.90;;;;;;5091543;28;20072;-69
2021/12/01 05:53:01;;;;;;;2.80;2.60;;;9.20;99.90;;;;;;5091203;28;20048;-69
2021/12/01 05:55:27;;;;;;;2.53;2.33;;;9.10;99.90;;;;;;5091376;28;20036;-70
2021/12/01 05:57:53;;;;;;;2.97;2.63;;;9.10;99.90;;;;;;5091178;28;20031;-70
2021/12/01 06:00:19;;;;;;;2.72;2.53;;;9.10;99.90;;;;;;5091360;28;20109;-70
2021/12/01 06:02:49;;;;;;;2.88;2.58;;;9.10;99.90;;;;;;5090940;28;20062;-70
2021/12/01 06:05:15;;;;;;;3.83;2.67;;;9.00;99.90;;;;;;5091424;28;20241;-70
2021/12/01 06:07:40;;;;;;;2.67;2.47;;;9.10;99.90;;;;;;5091516;28;20537;-70
2021/12/01 06:10:07;;;;;;;2.53;2.33;;;9.00;99.90;;;;;;5091332;28;20076;-70
2021/12/01 06:12:33;;;;;;;4.88;2.15;;;9.00;99.90;;;;;;5090986;28;20111;-70
2021/12/01 06:14:59;;;;;;;2.60;2.40;;;9.00;99.90;;;;;;5090795;28;20038;-70
2021/12/01 06:17:26;;;;;;;3.47;2.08;;;9.00;99.90;;;;;;5091198;28;20044;-70
2021/12/01 06:19:53;;;;;;;2.67;2.47;;;9.00;99.90;;;;;;5091295;28;20403;-70
2021/12/01 06:22:19;;;;;;;2.80;2.30;;;9.00;99.90;;;;;;5090875;28;20040;-70
2021/12/01 06:24:45;;;;;;;3.10;2.80;;;8.90;99.90;;;;;;5089683;28;20048;-70
2021/12/01 06:27:11;;;;;;;3.17;2.70;;;9.00;99.90;;;;;;5091109;28;20119;-70
2021/12/01 06:29:37;;;;;;;3.03;2.58;;;9.00;99.90;;;;;;5091471;28;20080;-70
2021/12/01 06:32:03;;;;;;;2.85;2.65;;;8.90;99.90;;;;;;5090719;28;20036;-70
2021/12/01 06:34:29;;;;;;;2.70;2.50;;;8.90;99.90;;;;;;5090112;28;20040;-70
2021/12/01 06:36:55;;;;;;;3.03;2.72;;;8.90;99.90;;;;;;5093628;28;20161;-70
2021/12/01 06:39:21;;;;;;;2.85;2.65;;;9.00;99.90;;;;;;5095020;28;20605;-70
2021/12/01 06:41:46;;;;;;;3.30;3.00;;;8.90;99.90;;;;;;5094562;28;20111;-70
2021/12/01 06:44:12;;;;;;;3.25;2.95;;;8.90;99.90;;;;;;5093554;28;20113;-71
2021/12/01 06:46:38;;;;;;;3.28;2.97;;;8.90;99.90;;;;;;5095221;28;20036;-70
2021/12/01 06:49:03;;;;;;;2.83;2.63;;;8.90;99.90;;;;;;5095263;28;20036;-70
2021/12/01 06:51:29;;;;;;;3.13;2.83;;;8.80;99.90;;;;;;5094864;28;20047;-71
2021/12/01 06:53:55;;;;;;;4.00;3.03;;;8.90;99.90;;;;;;5094502;28;20089;-71
2021/12/01 06:56:21;;;;;;;2.97;2.78;;;8.90;99.90;;;;;;5094488;28;20082;-70
2021/12/01 06:58:47;;;;;;;2.45;2.25;;;8.80;99.90;;;;;;5094674;28;20173;-71
2021/12/01 07:01:13;;;;;;;2.90;2.67;;;8.80;99.90;;;;;;5094753;28;20036;-71
2021/12/01 07:03:39;;;;;;;2.92;2.72;;;8.80;99.90;;;;;;5094194;28;20039;-71
2021/12/01 07:06:05;;;;;;;3.15;2.83;;;8.80;99.90;;;;;;5093115;28;20047;-71
2021/12/01 07:08:31;;;;;;;3.42;3.13;;;8.80;99.90;;;;;;5094432;28;20488;-71
2021/12/01 07:10:57;;;;;;;3.03;2.78;;;8.90;99.90;;;;;;5094119;28;20045;-71
2021/12/01 07:13:23;;;;;;;3.20;2.90;;;8.90;99.90;;;;;;5092469;28;20041;-72
2021/12/01 07:15:49;;;;;;;2.72;2.53;;;8.80;99.90;;;;;;5094094;28;20036;-70
2021/12/01 07:18:14;;;;;;;2.70;2.50;;;8.80;99.90;;;;;;5074004;28;20045;-71
2021/12/01 07:20:40;;;;;;;4.40;2.67;;;8.80;99.90;;;;;;5053836;28;20036;-71
2021/12/01 07:23:05;;;;;;;2.55;2.35;;;8.80;99.90;;;;;;5053192;28;20043;-70
2021/12/01 07:25:32;;;;;;;2.55;2.35;;;8.80;99.90;;;;;;5052261;28;20371;-70
2021/12/01 07:27:58;;;;;;;3.65;2.90;;;8.80;99.90;;;;;;5053451;28;20519;-72
2021/12/01 07:30:24;;;;;;;3.08;2.75;;;8.80;99.90;;;;;;5053469;28;20036;-72
2021/12/01 07:32:50;;;;;;;2.63;2.42;;;8.80;99.90;;;;;;5053472;28;20040;-73
2021/12/01 07:35:16;;;;;;;2.72;2.53;;;8.70;99.90;;;;;;5053280;28;20076;-72
2021/12/01 07:37:43;;;;;;;2.60;2.40;;;8.80;99.90;;;;;;5053040;28;20041;-71
2021/12/01 07:40:09;;;;;;;2.85;2.42;;;8.80;99.90;;;;;;5051931;28;20092;-69
2021/12/01 07:42:35;;;;;;;3.08;2.47;;;8.80;99.90;;;;;;5052679;28;20453;-72
2021/12/01 07:45:00;;;;;;;2.00;1.90;;;8.80;99.90;;;;;;5053207;28;20041;-71
2021/12/01 07:47:26;;;;;;;2.58;2.22;;;8.80;99.90;;;;;;5051521;28;20033;-71
2021/12/01 07:49:52;;;;;;;2.65;2.30;;;8.80;99.90;;;;;;5052005;28;20577;-72
2021/12/01 07:52:17;;;;;;;2.03;1.88;;;8.80;99.90;;;;;;5052466;28;20174;-71
2021/12/01 07:54:43;;;;;;;2.53;2.33;;;8.80;99.90;;;;;;5052988;28;20106;-71
2021/12/01 07:57:09;;;;;;;2.60;2.40;;;8.90;99.90;;;;;;5053282;28;20107;-71
2021/12/01 07:59:35;;;;;;;2.63;2.42;;;8.80;99.90;;;;;;5053170;28;20101;-71
2021/12/01 08:02:02;;;;;;;2.85;2.35;;;8.80;99.90;;;;;;5050696;28;20041;-70
2021/12/01 08:04:27;;;;;;;2.50;2.30;;;8.80;99.90;;;;;;5049945;28;20037;-69
2021/12/01 08:06:54;;;;;;;2.80;2.50;;;8.80;99.90;;;;;;5051865;28;20039;-70
2021/12/01 08:09:21;;;;;;;2.60;2.40;;;8.90;99.90;;;;;;5051197;28;20405;-72
2021/12/01 08:11:47;;;;;;;2.80;2.60;;;8.90;99.90;;;;;;5050336;28;20044;-72
2021/12/01 08:14:12;;;;;;;2.70;2.50;;;8.90;99.90;;;;;;5052861;28;20076;-72
2021/12/01 08:16:38;;;;;;;3.00;2.72;;;8.90;99.90;;;;;;5051396;28;20072;-71
2021/12/01 08:19:04;;;;;;;3.00;2.80;;;8.90;99.90;;;;;;5052801;28;20098;-71
2021/12/01 08:21:32;;;;;;;3.00;2.75;;;8.90;99.90;;;;;;5051454;28;20052;-73
2021/12/01 08:23:58;;;;;;;3.50;3.20;;;9.00;99.90;;;;;;5052624;28;20045;-71
2021/12/01 08:26:24;;;;;;;4.93;3.20;;;9.00;99.90;;;;;;5051750;28;20370;-72
2021/12/01 08:28:50;;;;;;;3.88;3.47;;;9.00;99.90;;;;;;5051387;28;20044;-72
2021/12/01 08:31:17;;;;;;;4.35;3.63;;;9.00;99.90;;;;;;5052695;28;20041;-73
2021/12/01 08:33:44;;;;;;;5.32;3.28;;;9.00;99.90;;;;;;5051348;28;20668;-72
2021/12/01 08:36:10;;;;;;;3.88;3.47;;;9.00;99.90;;;;;;5051650;28;20103;-72
2021/12/01 08:38:37;;;;;;;3.85;3.45;;;9.00;99.90;;;;;;5052780;28;20076;-72
2021/12/01 08:41:04;;;;;;;5.10;3.58;;;9.10;99.90;;;;;;5051305;28;20037;-73
2021/12/01 08:43:30;;;;;;;3.78;3.33;;;9.10;99.90;;;;;;5052371;28;20190;-72
2021/12/01 08:45:56;;;;;;;4.80;3.35;;;9.10;99.90;;;;;;5052297;28;20119;-72
2021/12/01 08:48:23;;;;;;;6.50;3.53;;;9.10;99.90;;;;;;5051292;28;20398;-72
2021/12/01 08:50:48;;;;;;;5.68;4.13;;;9.10;99.90;;;;;;5050993;28;20033;-72
2021/12/01 08:53:14;;;;;;;4.57;3.95;;;9.10;99.90;;;;;;5050629;28;20048;-72
2021/12/01 08:55:41;;;;;;;4.47;4.05;;;9.10;99.90;;;;;;5052507;28;20033;-69
2021/12/01 08:58:14;;;;;;;5.22;4.50;;;9.10;99.90;;;;;;5061624;28;20044;-71
2021/12/01 09:00:45;;;;;;;6.65;4.32;;;9.10;99.90;;;;;;5053405;28;20408;-70
2021/12/01 09:03:15;;;;;;;5.22;4.03;;;9.10;99.90;;;;;;5053509;28;20048;-70
2021/12/01 09:05:42;;;;;;;6.07;4.95;;;9.10;99.90;;;;;;5071885;28;20094;-70
2021/12/01 09:08:07;;;;;;;7.13;4.15;;;9.10;99.90;;;;;;5072542;28;20123;-70
2021/12/01 09:10:34;;;;;;;5.95;3.70;;;9.20;99.90;;;;;;5071798;28;20111;-69
2021/12/01 09:13:00;;;;;;;3.72;3.40;;;9.20;99.90;;;;;;5069672;28;20075;-70
2021/12/01 09:15:27;;;;;;;4.20;3.03;;;9.20;99.90;;;;;;5070887;28;20082;-69
2021/12/01 09:17:53;;;;;;;8.05;2.70;;;9.20;99.90;;;;;;5071331;28;20119;-70
2021/12/01 09:20:19;;;;;;;3.35;2.20;;;9.20;99.90;;;;;;5071042;28;20028;-70
2021/12/01 09:22:45;;;;;;;6.20;2.50;;;9.20;99.90;;;;;;5070862;28;20036;-70
2021/12/01 09:25:11;;;;;;;11.85;3.30;;;9.20;99.90;;;;;;5070989;28;20031;-70
2021/12/01 09:27:36;;;;;;;5.82;1.92;;;9.20;99.90;;;;;;5071317;28;20082;-70
2021/12/01 09:30:03;;;;;;;3.00;1.95;;;9.20;99.90;;;;;;5071438;28;20119;-71
2021/12/01 09:32:29;;;;;;;8.15;3.08;;;9.20;99.90;;;;;;5071259;28;20045;-71
2021/12/01 09:34:54;;;;;;;7.75;2.30;;;9.20;99.90;;;;;;5069900;28;20047;-71
2021/12/01 09:37:20;;;;;;;11.82;2.53;;;9.30;99.90;;;;;;5071281;28;20093;-72
2021/12/01 09:39:46;;;;;;;4.68;2.72;;;9.20;99.90;;;;;;5070963;28;20044;-76
2021/12/01 09:42:12;;;;;;;7.38;2.42;;;9.30;99.90;;;;;;5070892;28;20541;-78
2021/12/01 09:44:38;;;;;;;6.00;2.20;;;9.30;99.90;;;;;;5071109;28;20040;-76
2021/12/01 09:47:05;;;;;;;8.35;2.00;;;9.30;99.90;;;;;;5053081;28;20048;-76
2021/12/01 09:49:31;;;;;;;4.75;2.40;;;9.30;99.90;;;;;;5070038;28;20048;-71
2021/12/01 09:51:57;;;;;;;7.60;2.00;;;9.40;99.90;;;;;;5069565;28;20041;-73
2021/12/01 09:54:23;;;;;;;3.58;1.90;;;9.30;99.90;;;;;;5069217;28;20098;-72
2021/12/01 09:56:49;;;;;;;7.63;2.05;;;9.30;99.90;;;;;;5069634;28;20071;-73
2021/12/01 09:59:14;;;;;;;10.38;2.53;;;9.30;99.90;;;;;;5069595;28;20110;-73
2021/12/01 10:01:40;;;;;;;13.10;2.45;;;9.30;99.90;;;;;;5070895;28;20071;-72
2021/12/01 10:04:06;;;;;;;9.00;1.88;;;9.20;99.90;;;;;;5071463;28;20488;-73
2021/12/01 10:06:33;;;;;;;13.20;2.50;;;9.20;99.90;;;;;;5069257;28;20040;-73
2021/12/01 10:09:01;;;;;;;11.18;2.25;;;9.20;99.90;;;;;;5069053;28;20047;-75
2021/12/01 10:11:30;;;;;;;10.45;2.13;;;9.10;99.90;;;;;;5073313;28;20044;-73
2021/12/01 10:14:01;;;;;;;7.90;1.52;;;9.10;99.90;;;;;;5063368;28;20036;-73
2021/12/01 10:16:33;;;;;;;4.60;1.48;;;9.10;99.90;;;;;;5063572;28;20041;-73
2021/12/01 10:19:02;;;;;;;13.02;2.13;;;9.10;99.90;;;;;;5061169;28;20040;-72
2021/12/01 10:21:54;;;;;;;7.80;1.80;;;9.10;99.90;;;;;;5047209;28;20043;-73
2021/12/01 10:24:19;;;;;;;11.88;1.95;;;9.10;99.90;;;;;;5061715;28;20174;-73
2021/12/01 10:26:54;;;;;;;10.77;1.98;;;9.10;99.90;;;;;;5063897;28;20136;-74
2021/12/01 10:29:30;;;;;;;7.18;2.33;;;9.20;99.90;;;;;;5064063;28;20456;-74
2021/12/01 10:32:13;;;;;;;8.68;2.03;;;9.10;99.90;;;;;;5060508;28;20571;-74
2021/12/01 10:34:43;;;;;;;2.85;1.77;;;9.10;99.90;;;;;;5062300;28;20045;-74
2021/12/01 10:37:29;;;;;;;10.10;1.70;;;9.20;99.90;;;;;;5044265;28;20060;-73
2021/12/01 10:40:10;;;;;;;5.30;1.90;;;9.20;99.90;;;;;;5053243;28;20128;-70
2021/12/01 10:42:55;;;;;;;10.73;2.08;;;9.20;99.90;;;;;;5053014;28;20056;-70
2021/12/01 10:45:41;;;;;;;7.95;1.77;;;9.20;99.90;;;;;;5052897;28;20052;-70
2021/12/01 10:48:10;;;;;;;6.25;1.73;;;9.20;99.90;;;;;;5052917;28;20120;-71
2021/12/01 10:50:42;;;;;;;16.00;2.20;;;9.20;99.90;;;;;;5052656;28;20067;-71
2021/12/01 10:53:18;;;;;;;9.52;2.10;;;9.30;99.90;;;;;;5052632;28;20037;-71
2021/12/01 10:55:45;;;;;;;10.10;2.10;;;9.30;99.90;;;;;;5052441;28;20072;-69
2021/12/01 10:58:10;;;;;;;9.32;2.67;;;9.30;99.90;;;;;;5052190;28;20048;-69
2021/12/01 11:00:39;;;;;;;12.65;2.83;;;9.30;99.90;;;;;;5054764;28;20386;-71
2021/12/01 11:03:12;;;;;;;10.68;2.05;;;9.30;99.90;;;;;;5053928;28;20055;-70
2021/12/01 11:05:41;;;;;;;10.98;2.08;;;9.30;99.90;;;;;;5058246;28;20354;-70
2021/12/01 11:08:17;;;;;;;6.00;1.77;;;9.30;99.90;;;;;;5060896;28;20396;-70
2021/12/01 11:10:52;;;;;;;9.90;1.92;;;9.30;99.90;;;;;;5052247;28;20098;-71
2021/12/01 11:13:18;;;;;;;13.20;2.53;;;9.40;99.90;;;;;;5051350;28;20051;-68
2021/12/01 11:15:55;;;;;;;14.77;1.83;;;9.40;99.90;;;;;;5051392;28;20568;-68
2021/12/01 11:18:24;;;;;;;8.88;2.22;;;9.40;99.90;;;;;;5035209;28;20045;-68
2021/12/01 11:20:51;;;;;;;11.65;2.85;;;9.40;99.90;;;;;;5052968;28;20068;-69
2021/12/01 11:23:30;;;;;;;13.20;2.17;;;9.40;99.90;;;;;;5051928;28;20041;-69
2021/12/01 11:26:04;;;;;;;14.55;2.33;;;9.40;99.90;;;;;;5057001;28;20052;-71
2021/12/01 11:28:33;;;;;;;14.73;2.78;;;9.40;99.90;;;;;;5053654;28;20381;-70
2021/12/01 11:31:02;;;;;;;11.52;2.20;;;9.50;99.90;;;;;;5052260;28;20071;-69
2021/12/01 11:33:29;;;;;;;11.50;2.25;;;9.50;99.90;;;;;;5051689;28;20132;-70
2021/12/01 11:35:58;;;;;;;13.30;3.08;;;9.50;99.90;;;;;;5035465;28;20384;-70
2021/12/01 11:38:24;;;;;;;14.02;2.50;;;9.50;99.90;;;;;;5051463;28;20146;-70
2021/12/01 11:40:51;;;;;;;12.45;2.53;;;9.50;99.90;;;;;;5051867;28;20037;-70
2021/12/01 11:43:19;;;;;;;11.70;2.40;;;9.50;99.90;;;;;;5035249;28;20044;-70
2021/12/01 11:45:45;;;;;;;14.73;2.97;;;9.50;99.90;;;;;;5052346;28;20044;-70
2021/12/01 11:48:20;;;;;;;11.63;3.22;;;9.50;99.90;;;;;;5058460;28;20401;-71
2021/12/01 11:50:55;;;;;;;14.18;2.40;;;9.50;99.90;;;;;;5035110;28;20048;-72
2021/12/01 11:53:23;;;;;;;19.80;2.90;;;9.50;99.90;;;;;;5035000;28;20041;-72
2021/12/01 11:55:57;;;;;;;18.60;3.97;;;9.50;99.90;;;;;;5036748;28;20189;-72
2021/12/01 11:58:41;;;;;;;9.40;2.33;;;9.50;99.90;;;;;;5060566;28;20050;-69
2021/12/01 12:01:35;;;;;;;15.75;2.65;;;9.50;99.90;;;;;;5057674;28;20120;-72
2021/12/01 12:04:01;;;;;;;7.40;2.60;;;9.50;99.90;;;;;;5066098;28;20070;-72
2021/12/01 12:06:29;;;;;;;19.08;3.45;;;9.40;99.90;;;;;;5067887;28;20138;-70
2021/12/01 12:08:58;;;;;;;11.18;2.63;;;9.50;99.90;;;;;;5070380;28;20040;-70
2021/12/01 12:11:35;;;;;;;17.65;3.10;;;9.40;99.90;;;;;;5071387;28;20040;-70
2021/12/01 12:14:05;;;;;;;14.32;2.60;;;9.40;99.90;;;;;;5071080;28;20098;-70
2021/12/01 12:16:31;;;;;;;14.80;2.90;;;9.30;99.90;;;;;;5071790;28;20377;-69
2021/12/01 12:18:59;;;;;;;19.77;3.03;;;9.30;99.90;;;;;;5071546;28;20415;-70
2021/12/01 12:24:11;;;;;;;15.30;3.53;;;9.30;99.90;;;;;;5072676;28;20488;-69
2021/12/01 12:26:45;;;;;;;14.90;2.83;;;9.20;99.90;;;;;;5071419;28;20037;-70
2021/12/01 12:29:17;;;;;;;16.90;2.92;;;9.30;99.90;;;;;;5071280;28;20056;-70
2021/12/01 12:31:47;;;;;;;11.77;2.70;;;9.20;99.90;;;;;;5071998;28;20079;-69
2021/12/01 12:34:14;;;;;;;12.23;2.67;;;9.20;99.90;;;;;;5070493;28;20032;-70
2021/12/01 12:36:50;;;;;;;18.80;2.90;;;9.20;99.90;;;;;;5072509;28;20036;-70
2021/12/01 12:39:23;;;;;;;19.33;3.35;;;9.20;99.90;;;;;;5072536;28;20064;-68
2021/12/01 12:41:55;;;;;;;11.27;2.65;;;9.10;99.90;;;;;;5072418;28;20664;-68
2021/12/01 12:44:39;;;;;;;10.57;2.80;;;9.10;99.90;;;;;;5072655;28;20048;-68
2021/12/01 12:47:22;;;;;;;19.52;3.08;;;9.10;99.90;;;;;;5072571;28;20075;-70
2021/12/01 12:50:10;;;;;;;15.30;3.63;;;9.00;99.90;;;;;;5072030;28;20055;-71
2021/12/01 12:52:44;;;;;;;19.38;5.63;;;9.00;99.90;;;;;;5070276;28;20169;-71
2021/12/01 12:55:19;;;;;;;14.70;3.28;;;8.90;99.90;;;;;;5069871;28;20045;-70
2021/12/01 12:58:00;;;;;;;15.32;3.38;;;8.90;99.90;;;;;;5053826;28;20051;-71
2021/12/01 13:00:30;;;;;;;19.90;3.25;;;8.90;99.90;;;;;;5070656;28;20458;-71